Mid Ohio Valley Regional Airport
KPKB : now visible

Airfield :











YOU CAN JOIN US ON...

 
LOGIN :

Register | Disclaimer

   EN    FR    IT 

 









Legend :    VFR   Marginal VFR   IFR   Intensive IFR   Very Intensive IFR
Visi :
Ceiling :
>= 8 km
>= 3000ft
5 to 8 km
1000 to 3000 ft
1500m to 5 km
500 to 1000 ft
800 to 1500m
200 to 500 ft
< 800m
< 200 ft
Symbols :   Thunderstorms  Fog  Heavy snow  Heavy precipitations  Wind > 20 kt






- Airport Elevation : 858 ft
- IATA code : PKB


KPKB - Mid Ohio Valley Regional

CURRENT METAR :
  • 162353Z 21005KT 10SM CLR 29/14 A3002 RMK AO2 SLP159 T02940144 10322 20294 56007

EXPIRED METARs :
  • 162253Z 23005KT 10SM CLR 31/16 A3002 RMK AO2 SLP161 T03110161
  • 162153Z 22005KT 10SM FEW070 32/16 A3003 RMK AO2 SLP163 T03220156
  • 162053Z 23007KT 10SM SCT060 31/16 A3004 RMK AO2 SLP168 T03110156 58015
  • 161953Z 23005KT 10SM SCT060 32/16 A3006 RMK AO2 SLP173 T03170156

TAF KPKB
Valid from the 17 at 00:00 until the 18 at 00:00 UTC


162338Z 1700/1724 23004KT P6SM SKC
FM170300 00000KT P6SM FEW250
FM171400 21004KT P6SM FEW045
KZID FIR / North America



MET'MAP, your aeronautical weather chart ! - Copyright ORBIFLY December 2007 - Disclaimer

ORBIFLY MET'MAP TEAM :

Programming & Development : Alexandra Zaïnal
Original concept : Baudouin d'Aumeries
Technical & hardware support : Manuel Goepfert
Assistance : Marc-Olivier Méhu




SOURCES & CREDITS :

   NOAA       Earth
Advisory